createdAt,value
2016-10-13T00:00:56.279Z,0
2016-10-13T00:01:56.335Z,0
2016-10-13T00:02:57.032Z,0
2016-10-13T00:03:56.455Z,0
2016-10-13T00:04:57.074Z,0
2016-10-13T00:05:57.103Z,0
2016-10-13T00:06:57.146Z,0
2016-10-13T00:07:57.157Z,0
2016-10-13T00:08:56.880Z,0
2016-10-13T00:09:56.762Z,0
2016-10-13T00:10:56.797Z,0
2016-10-13T00:11:56.897Z,0
2016-10-13T00:12:56.928Z,0
2016-10-13T00:13:57.138Z,0
2016-10-13T00:14:57.047Z,0
2016-10-13T00:15:57.104Z,0
2016-10-13T00:16:57.169Z,0
2016-10-13T00:17:57.252Z,0
2016-10-13T00:18:57.338Z,0
2016-10-13T00:19:57.292Z,0
2016-10-13T00:20:57.395Z,0
2016-10-13T00:21:57.410Z,0
2016-10-13T00:22:57.488Z,0
2016-10-13T00:23:57.604Z,0
2016-10-13T00:24:57.550Z,0
2016-10-13T00:25:58.174Z,0
2016-10-13T00:26:57.640Z,0
2016-10-13T00:27:57.750Z,0
2016-10-13T00:28:57.894Z,0
2016-10-13T00:29:57.868Z,0
2016-10-13T00:30:58.378Z,0
2016-10-13T00:31:57.936Z,0
2016-10-13T00:32:57.972Z,0
2016-10-13T00:33:58.659Z,0
2016-10-13T00:34:58.132Z,0
2016-10-13T00:35:58.199Z,0
2016-10-13T00:36:58.212Z,0
2016-10-13T00:37:58.285Z,0
2016-10-13T00:38:58.470Z,0
2016-10-13T00:39:58.370Z,0
2016-10-13T00:40:58.373Z,0
2016-10-13T00:41:59.003Z,0
2016-10-13T00:42:58.534Z,0
2016-10-13T00:43:58.572Z,0
2016-10-13T00:44:58.729Z,0
2016-10-13T00:45:58.722Z,0
2016-10-13T00:46:58.742Z,0
2016-10-13T00:47:58.861Z,0
2016-10-13T00:48:58.862Z,0
2016-10-13T00:49:59.022Z,0
2016-10-13T00:50:58.941Z,0
2016-10-13T00:51:58.977Z,0
2016-10-13T00:52:59.603Z,0
2016-10-13T00:53:59.139Z,0
2016-10-13T00:54:59.239Z,0
2016-10-13T00:55:59.826Z,0
2016-10-13T00:56:59.266Z,0
2016-10-13T00:57:59.317Z,0
2016-10-13T00:58:59.391Z,0
2016-10-13T00:59:59.529Z,0
2016-10-13T01:00:59.519Z,0
2016-10-13T01:01:59.541Z,0
2016-10-13T01:02:59.635Z,0
2016-10-13T01:03:59.640Z,0
2016-10-13T01:04:59.782Z,0
2016-10-13T01:05:59.775Z,0
2016-10-13T01:06:59.774Z,0
2016-10-13T01:07:59.849Z,0
2016-10-13T01:08:59.882Z,0
2016-10-13T01:09:59.977Z,0
2016-10-13T01:11:00.135Z,0
2016-10-13T01:12:00.112Z,0
2016-10-13T01:13:00.107Z,0
2016-10-13T01:14:00.188Z,0
2016-10-13T01:15:00.194Z,0
2016-10-13T01:16:00.409Z,0
2016-10-13T01:17:00.333Z,0
2016-10-13T01:18:00.368Z,0
2016-10-13T01:19:00.403Z,0
2016-10-13T01:20:00.497Z,0
2016-10-13T01:21:00.622Z,0
2016-10-13T01:22:00.577Z,0
2016-10-13T01:23:00.663Z,0
2016-10-13T01:24:00.712Z,0
2016-10-13T01:25:00.803Z,0
2016-10-13T01:26:00.935Z,0
2016-10-13T01:27:00.913Z,0
2016-10-13T01:28:01.496Z,0
2016-10-13T01:29:00.923Z,0
2016-10-13T01:30:00.994Z,0
2016-10-13T01:31:01.261Z,0
2016-10-13T01:32:01.170Z,0
2016-10-13T01:33:01.190Z,0
2016-10-13T01:34:01.214Z,0
2016-10-13T01:35:01.301Z,0
2016-10-13T01:36:01.423Z,0
2016-10-13T01:37:01.383Z,0
2016-10-13T01:38:01.437Z,0
2016-10-13T01:39:01.514Z,0
2016-10-13T01:40:01.584Z,0
2016-10-13T01:41:01.613Z,0
2016-10-13T01:42:01.747Z,0
2016-10-13T01:43:01.728Z,0
2016-10-13T01:44:01.758Z,0
2016-10-13T01:45:01.824Z,0
2016-10-13T01:46:01.882Z,0
2016-10-13T01:47:01.989Z,0
2016-10-13T01:48:01.980Z,0
2016-10-13T01:49:02.004Z,0
2016-10-13T01:50:02.105Z,0
2016-10-13T01:51:02.162Z,0
2016-10-13T01:52:02.320Z,0
2016-10-13T01:53:02.780Z,0
2016-10-13T01:54:02.281Z,0
2016-10-13T01:55:02.325Z,0
2016-10-13T01:56:02.431Z,0
2016-10-13T01:57:02.551Z,0
2016-10-13T01:58:02.575Z,0
2016-10-13T01:59:03.117Z,0
2016-10-13T02:00:02.621Z,0
2016-10-13T02:01:02.660Z,0
2016-10-13T02:02:02.834Z,0
2016-10-13T02:03:02.767Z,0
2016-10-13T02:04:02.862Z,0
2016-10-13T02:05:02.932Z,0
2016-10-13T02:06:02.935Z,0
2016-10-13T02:07:03.075Z,0
2016-10-13T02:08:03.053Z,0
2016-10-13T02:09:03.091Z,0
2016-10-13T02:10:03.158Z,0
2016-10-13T02:11:03.179Z,0
2016-10-13T02:12:03.859Z,0
2016-10-13T02:13:03.451Z,0
2016-10-13T02:14:03.373Z,0
2016-10-13T02:15:03.405Z,0
2016-10-13T02:16:03.486Z,0
2016-10-13T02:17:03.515Z,0
2016-10-13T02:18:03.713Z,0
2016-10-13T02:19:03.610Z,0
2016-10-13T02:20:03.712Z,0
2016-10-13T02:21:03.756Z,0
2016-10-13T02:22:03.825Z,0
2016-10-13T02:23:03.924Z,0
2016-10-13T02:24:03.918Z,0
2016-10-13T02:25:03.941Z,0
2016-10-13T02:26:03.964Z,0
2016-10-13T02:27:04.035Z,0
2016-10-13T02:28:04.233Z,0
2016-10-13T02:29:04.121Z,0
2016-10-13T02:30:04.220Z,0
2016-10-13T02:31:04.286Z,0
2016-10-13T02:32:04.317Z,0
2016-10-13T02:33:04.496Z,0
2016-10-13T02:34:04.953Z,0
2016-10-13T02:35:04.462Z,0
2016-10-13T02:36:04.530Z,0
2016-10-13T02:37:05.107Z,0
2016-10-13T02:38:04.731Z,0
2016-10-13T02:39:04.668Z,0
2016-10-13T02:40:04.743Z,0
2016-10-13T02:41:04.796Z,0
2016-10-13T02:42:04.864Z,0
2016-10-13T02:43:05.583Z,0
2016-10-13T02:44:04.944Z,0
2016-10-13T02:45:05.002Z,0
2016-10-13T02:46:05.059Z,0
2016-10-13T02:47:05.118Z,0
2016-10-13T02:48:05.241Z,0
2016-10-13T02:49:05.210Z,0
2016-10-13T02:50:05.271Z,0
2016-10-13T02:51:05.290Z,0
2016-10-13T02:52:05.382Z,0
2016-10-13T02:53:05.432Z,0
2016-10-13T02:54:05.580Z,0
2016-10-13T02:55:05.485Z,0
2016-10-13T02:56:05.565Z,0
2016-10-13T02:57:05.677Z,0
2016-10-13T02:58:06.205Z,0
2016-10-13T02:59:05.819Z,0
2016-10-13T03:00:05.769Z,0
2016-10-13T03:01:06.365Z,0
2016-10-13T03:02:05.901Z,0
2016-10-13T03:03:05.990Z,0
2016-10-13T03:04:06.129Z,0
2016-10-13T03:05:06.075Z,0
2016-10-13T03:06:06.145Z,0
2016-10-13T03:07:06.150Z,0
2016-10-13T03:08:06.183Z,0
2016-10-13T03:09:06.359Z,0
2016-10-13T03:10:06.378Z,0
2016-10-13T03:11:06.428Z,0
2016-10-13T03:12:06.408Z,0
2016-10-13T03:13:06.446Z,0
2016-10-13T03:14:06.634Z,0
2016-10-13T03:15:06.633Z,0
2016-10-13T03:16:06.629Z,0
2016-10-13T03:17:06.722Z,0
2016-10-13T03:18:06.739Z,0
2016-10-13T03:19:06.908Z,0
2016-10-13T03:20:06.859Z,0
2016-10-13T03:21:06.894Z,0
2016-10-13T03:22:06.939Z,0
2016-10-13T03:23:07.005Z,0
2016-10-13T03:24:07.187Z,0
2016-10-13T03:25:07.132Z,0
2016-10-13T03:26:07.179Z,0
2016-10-13T03:27:07.258Z,0
2016-10-13T03:28:07.316Z,0
2016-10-13T03:29:07.332Z,0
2016-10-13T03:30:07.496Z,0
2016-10-13T03:31:07.456Z,0
2016-10-13T03:32:07.485Z,0
2016-10-13T03:33:07.576Z,0
2016-10-13T03:34:07.588Z,0
2016-10-13T03:35:07.759Z,0
2016-10-13T03:36:07.711Z,0
2016-10-13T03:37:07.724Z,0
2016-10-13T03:38:07.816Z,0
2016-10-13T03:39:07.836Z,0
2016-10-13T03:40:08.522Z,0
2016-10-13T03:41:08.513Z,0
2016-10-13T03:42:08.512Z,0
2016-10-13T03:43:08.656Z,0
2016-10-13T03:44:08.690Z,0
2016-10-13T03:45:08.295Z,0
2016-10-13T03:46:08.256Z,0
2016-10-13T03:47:08.273Z,0
2016-10-13T03:48:08.339Z,0
2016-10-13T03:49:08.915Z,0
2016-10-13T03:50:08.568Z,0
2016-10-13T03:51:08.504Z,0
2016-10-13T03:52:08.563Z,0
2016-10-13T03:53:09.144Z,0
2016-10-13T03:54:08.646Z,0
2016-10-13T03:55:08.692Z,0
2016-10-13T03:56:08.879Z,0
2016-10-13T03:57:09.363Z,0
2016-10-13T03:58:08.888Z,0
2016-10-13T03:59:08.969Z,0
2016-10-13T04:00:08.972Z,0
2016-10-13T04:01:09.618Z,0
2016-10-13T04:02:09.029Z,0
2016-10-13T04:03:09.180Z,0
2016-10-13T04:04:09.176Z,0
2016-10-13T04:05:09.243Z,0
2016-10-13T04:06:09.385Z,0
2016-10-13T04:07:09.324Z,0
2016-10-13T04:08:09.398Z,0
2016-10-13T04:09:09.430Z,0
2016-10-13T04:10:09.475Z,0
2016-10-13T04:11:09.632Z,0
2016-10-13T04:12:09.625Z,0
2016-10-13T04:13:10.169Z,0
2016-10-13T04:14:09.748Z,0
2016-10-13T04:15:09.779Z,0
2016-10-13T04:16:09.957Z,0
2016-10-13T04:17:09.894Z,0
2016-10-13T04:18:09.951Z,0
2016-10-13T04:19:09.950Z,0
2016-10-13T04:20:10.066Z,0
2016-10-13T04:21:10.117Z,0
2016-10-13T04:22:10.228Z,0
2016-10-13T04:23:10.177Z,0
2016-10-13T04:24:10.263Z,0
2016-10-13T04:25:10.320Z,0
2016-10-13T04:26:10.372Z,0
2016-10-13T04:27:10.481Z,0
2016-10-13T04:28:10.416Z,0
2016-10-13T04:29:10.509Z,0
2016-10-13T04:30:11.101Z,0
2016-10-13T04:31:10.623Z,0
2016-10-13T04:32:10.806Z,0
2016-10-13T04:33:11.253Z,0
2016-10-13T04:34:10.785Z,0
2016-10-13T04:35:10.800Z,0
2016-10-13T04:36:11.401Z,0
2016-10-13T04:37:11.055Z,0
2016-10-13T04:38:10.981Z,0
2016-10-13T04:39:11.021Z,0
2016-10-13T04:40:11.087Z,0
2016-10-13T04:41:11.701Z,0
2016-10-13T04:42:11.269Z,0
2016-10-13T04:43:11.279Z,0
2016-10-13T04:44:11.309Z,0
2016-10-13T04:45:11.938Z,0
2016-10-13T04:46:11.345Z,0
2016-10-13T04:47:11.588Z,0
2016-10-13T04:48:11.477Z,0
2016-10-13T04:49:11.566Z,0
2016-10-13T04:50:12.123Z,0
2016-10-13T04:51:11.666Z,0
2016-10-13T04:52:11.793Z,0
2016-10-13T04:53:11.740Z,0
2016-10-13T04:54:12.343Z,0
2016-10-13T04:55:11.869Z,0
2016-10-13T04:56:11.935Z,0
2016-10-13T04:57:12.033Z,0
2016-10-13T04:58:12.148Z,0
2016-10-13T04:59:12.063Z,0
2016-10-13T05:00:12.155Z,0
2016-10-13T05:01:12.751Z,0
2016-10-13T05:02:12.807Z,0
2016-10-13T05:03:12.421Z,0
2016-10-13T05:04:12.319Z,0
2016-10-13T05:05:12.381Z,0
2016-10-13T05:06:12.452Z,0
2016-10-13T05:07:12.534Z,0
2016-10-13T05:08:12.667Z,0
2016-10-13T05:09:12.650Z,0
2016-10-13T05:10:12.689Z,0
2016-10-13T05:11:12.693Z,0
2016-10-13T05:12:12.742Z,0
2016-10-13T05:13:12.924Z,0
2016-10-13T05:14:12.904Z,0
2016-10-13T05:15:12.933Z,0
2016-10-13T05:16:12.980Z,0
2016-10-13T05:17:13.010Z,0
2016-10-13T05:18:13.241Z,0
2016-10-13T05:19:13.145Z,0
2016-10-13T05:20:13.196Z,0
2016-10-13T05:21:13.783Z,0
2016-10-13T05:22:13.281Z,0
2016-10-13T05:23:13.457Z,0
2016-10-13T05:24:13.405Z,0
2016-10-13T05:25:13.468Z,0
2016-10-13T05:26:13.535Z,0
2016-10-13T05:27:13.567Z,0
2016-10-13T05:28:13.631Z,0
2016-10-13T05:29:13.781Z,0
2016-10-13T05:30:13.707Z,0
2016-10-13T05:31:13.772Z,0
2016-10-13T05:32:13.878Z,0
2016-10-13T05:33:13.861Z,0
2016-10-13T05:34:14.047Z,0
2016-10-13T05:35:14.023Z,0
2016-10-13T05:36:14.078Z,0
2016-10-13T05:37:14.099Z,0
2016-10-13T05:38:14.164Z,0
2016-10-13T05:39:14.276Z,0
2016-10-13T05:40:14.236Z,0
2016-10-13T05:41:15.403Z,0
2016-10-13T05:42:14.349Z,0
2016-10-13T05:43:14.428Z,0
2016-10-13T05:44:14.561Z,0
2016-10-13T05:45:14.494Z,0
2016-10-13T05:46:14.560Z,0
2016-10-13T05:47:14.602Z,0
2016-10-13T05:48:14.683Z,0
2016-10-13T05:49:14.844Z,0
2016-10-13T05:50:15.863Z,0
2016-10-13T05:51:14.853Z,0
2016-10-13T05:52:14.909Z,0
2016-10-13T05:53:14.952Z,0
2016-10-13T05:54:15.077Z,0
2016-10-13T05:55:15.043Z,0
2016-10-13T05:56:15.132Z,0
2016-10-13T05:57:15.136Z,0
2016-10-13T05:58:15.216Z,0
2016-10-13T05:59:15.261Z,0
2016-10-13T06:00:15.414Z,0
2016-10-13T06:01:15.346Z,0
2016-10-13T06:02:15.382Z,0
2016-10-13T06:03:15.458Z,0
2016-10-13T06:04:15.507Z,0
2016-10-13T06:05:15.658Z,0
2016-10-13T06:06:15.630Z,0
2016-10-13T06:07:15.640Z,0
2016-10-13T06:08:15.707Z,0
2016-10-13T06:09:15.767Z,0
2016-10-13T06:10:15.912Z,0
2016-10-13T06:11:15.945Z,0
2016-10-13T06:12:15.969Z,0
2016-10-13T06:13:15.967Z,0
2016-10-13T06:14:16.060Z,0
2016-10-13T06:15:16.729Z,0
2016-10-13T06:16:16.154Z,0
2016-10-13T06:17:16.249Z,0
2016-10-13T06:18:16.293Z,0
2016-10-13T06:19:16.289Z,0
2016-10-13T06:20:16.465Z,0
2016-10-13T06:21:16.377Z,0
2016-10-13T06:22:16.462Z,0
2016-10-13T06:23:16.501Z,0
2016-10-13T06:24:16.598Z,0
2016-10-13T06:25:16.709Z,0
2016-10-13T06:26:16.664Z,0
2016-10-13T06:27:16.736Z,0
2016-10-13T06:28:16.784Z,0
2016-10-13T06:29:16.809Z,0
2016-10-13T06:30:16.949Z,0
2016-10-13T06:31:16.937Z,0
2016-10-13T06:32:17.069Z,0
2016-10-13T06:33:17.611Z,0
2016-10-13T06:34:17.078Z,0
2016-10-13T06:35:17.158Z,0
2016-10-13T06:36:17.306Z,0
2016-10-13T06:37:17.250Z,0
2016-10-13T06:38:17.318Z,0
2016-10-13T06:39:17.364Z,0
2016-10-13T06:40:17.406Z,0
2016-10-13T06:41:17.578Z,0
2016-10-13T06:42:17.487Z,0
2016-10-13T06:43:17.544Z,0
2016-10-13T06:44:18.100Z,0
2016-10-13T06:45:17.675Z,0
2016-10-13T06:46:17.846Z,0
2016-10-13T06:47:17.740Z,0
2016-10-13T06:48:17.802Z,0
2016-10-13T06:49:17.880Z,0
2016-10-13T06:50:17.943Z,0
2016-10-13T06:51:18.096Z,0
2016-10-13T06:52:18.007Z,0
2016-10-13T06:53:18.109Z,0
2016-10-13T06:54:18.162Z,0
2016-10-13T06:55:18.208Z,0
2016-10-13T06:56:18.352Z,0
2016-10-13T06:57:18.338Z,0
2016-10-13T06:58:18.347Z,0
2016-10-13T06:59:18.449Z,0
2016-10-13T07:00:18.413Z,0
2016-10-13T07:01:19.107Z,0
2016-10-13T07:02:19.173Z,0
2016-10-13T07:03:18.666Z,0
2016-10-13T07:04:18.701Z,0
2016-10-13T07:05:18.745Z,0
2016-10-13T07:06:18.768Z,0
2016-10-13T07:07:18.906Z,0
2016-10-13T07:08:18.894Z,0
2016-10-13T07:09:18.957Z,0
2016-10-13T07:10:18.976Z,0
2016-10-13T07:11:19.079Z,0
2016-10-13T07:12:19.179Z,0
2016-10-13T07:13:19.188Z,0
2016-10-13T07:14:19.196Z,0
2016-10-13T07:15:19.281Z,0
2016-10-13T07:16:19.295Z,0
2016-10-13T07:17:19.476Z,0
2016-10-13T07:18:19.458Z,0
2016-10-13T07:19:19.728Z,0
2016-10-13T07:20:19.521Z,0
2016-10-13T07:21:19.590Z,0
2016-10-13T07:22:19.690Z,0
2016-10-13T07:23:19.715Z,0
2016-10-13T07:24:19.755Z,0
2016-10-13T07:25:19.780Z,0
2016-10-13T07:26:19.839Z,0
2016-10-13T07:27:19.986Z,0
2016-10-13T07:28:19.976Z,0
2016-10-13T07:29:19.999Z,0
2016-10-13T07:30:20.077Z,0
2016-10-13T07:31:20.091Z,0
2016-10-13T07:32:20.175Z,0
2016-10-13T07:33:20.331Z,0
2016-10-13T07:34:20.222Z,0
2016-10-13T07:35:20.318Z,0
2016-10-13T07:36:20.422Z,0
2016-10-13T07:37:20.419Z,0
2016-10-13T07:38:20.543Z,0
2016-10-13T07:39:21.005Z,0
2016-10-13T07:40:20.581Z,0
2016-10-13T07:41:21.169Z,0
2016-10-13T07:42:20.704Z,0
2016-10-13T07:43:20.828Z,0
2016-10-13T07:44:20.818Z,0
2016-10-13T07:45:20.860Z,0
2016-10-13T07:46:20.861Z,0
2016-10-13T07:47:20.919Z,0
2016-10-13T07:48:21.110Z,0
2016-10-13T07:49:21.068Z,0
2016-10-13T07:50:21.091Z,0
2016-10-13T07:51:21.660Z,0
2016-10-13T07:52:21.202Z,0
2016-10-13T07:53:21.298Z,0
2016-10-13T07:54:21.344Z,0
2016-10-13T07:55:21.391Z,0
2016-10-13T07:56:21.399Z,0
2016-10-13T07:57:21.472Z,0
2016-10-13T07:58:21.513Z,0
2016-10-13T07:59:21.698Z,0
2016-10-13T08:00:21.642Z,0
2016-10-13T08:01:21.685Z,0
2016-10-13T08:02:21.739Z,0
2016-10-13T08:03:21.755Z,0
2016-10-13T08:04:21.922Z,0
2016-10-13T08:05:21.896Z,0
2016-10-13T08:06:21.925Z,0
2016-10-13T08:07:21.975Z,0
2016-10-13T08:08:22.015Z,0
2016-10-13T08:09:22.756Z,0
2016-10-13T08:10:22.120Z,0
2016-10-13T08:11:22.237Z,0
2016-10-13T08:12:22.211Z,0
2016-10-13T08:13:22.264Z,0
2016-10-13T08:14:22.460Z,0
2016-10-13T08:15:22.384Z,0
2016-10-13T08:16:22.514Z,0
2016-10-13T08:17:22.505Z,0
2016-10-13T08:18:22.597Z,0
2016-10-13T08:19:22.689Z,0
2016-10-13T08:20:22.686Z,0
2016-10-13T08:21:22.681Z,0
2016-10-13T08:22:22.722Z,0
2016-10-13T08:23:22.812Z,0
2016-10-13T08:24:23.003Z,0
2016-10-13T08:25:22.929Z,0
2016-10-13T08:26:22.967Z,0
2016-10-13T08:27:23.003Z,0
2016-10-13T08:28:23.071Z,0
2016-10-13T08:29:23.109Z,0
2016-10-13T08:30:23.303Z,0
2016-10-13T08:31:23.272Z,0
2016-10-13T08:32:23.280Z,0
2016-10-13T08:33:23.365Z,0
2016-10-13T08:34:23.371Z,0
2016-10-13T08:35:23.558Z,0
2016-10-13T08:36:23.513Z,0
2016-10-13T08:37:23.509Z,0
2016-10-13T08:38:23.653Z,0
2016-10-13T08:39:23.660Z,0
2016-10-13T08:40:23.846Z,0
2016-10-13T08:41:23.797Z,0
2016-10-13T08:42:23.764Z,0
2016-10-13T08:43:23.891Z,0
2016-10-13T08:44:23.914Z,0
2016-10-13T08:45:24.015Z,0
2016-10-13T08:46:24.040Z,0
2016-10-13T08:47:24.037Z,0
2016-10-13T08:48:24.127Z,0
2016-10-13T08:49:24.172Z,0
2016-10-13T08:50:24.852Z,0
2016-10-13T08:51:24.332Z,0
2016-10-13T08:52:24.370Z,0
2016-10-13T08:53:24.389Z,0
2016-10-13T08:54:24.463Z,0
2016-10-13T08:55:25.138Z,0
2016-10-13T08:56:24.545Z,0
2016-10-13T08:57:25.649Z,0
2016-10-13T08:58:24.653Z,0
2016-10-13T08:59:24.706Z,0
2016-10-13T09:00:24.786Z,0
2016-10-13T09:01:24.907Z,0
2016-10-13T09:02:24.868Z,0
2016-10-13T09:03:24.946Z,0
2016-10-13T09:04:24.990Z,0
2016-10-13T09:05:25.017Z,0
2016-10-13T09:06:25.203Z,0
2016-10-13T09:07:25.123Z,0
2016-10-13T09:08:25.208Z,0
2016-10-13T09:09:25.270Z,0
2016-10-13T09:10:25.260Z,0
2016-10-13T09:11:25.484Z,0
2016-10-13T09:12:25.947Z,0
2016-10-13T09:13:25.499Z,0
2016-10-13T09:14:25.449Z,0
2016-10-13T09:15:25.534Z,0
2016-10-13T09:16:25.717Z,0
2016-10-13T09:17:25.659Z,0
2016-10-13T09:18:25.754Z,0
2016-10-13T09:19:25.769Z,0
2016-10-13T09:20:26.375Z,0
2016-10-13T09:21:25.989Z,0
2016-10-13T09:22:25.898Z,0
2016-10-13T09:23:26.534Z,0
2016-10-13T09:24:26.027Z,0
2016-10-13T09:25:26.131Z,0
2016-10-13T09:26:26.760Z,0
2016-10-13T09:27:26.208Z,0
2016-10-13T09:28:26.241Z,0
2016-10-13T09:29:26.308Z,5
2016-10-13T09:30:26.327Z,5
2016-10-13T09:31:26.480Z,5
2016-10-13T09:32:27.007Z,5
2016-10-13T09:33:26.998Z,5
2016-10-13T09:34:27.118Z,5
2016-10-13T09:35:27.118Z,5
2016-10-13T09:36:26.744Z,5
2016-10-13T09:37:26.660Z,10
2016-10-13T09:38:26.769Z,10
2016-10-13T09:39:26.807Z,10
2016-10-13T09:40:26.921Z,10
2016-10-13T09:41:27.062Z,10
2016-10-13T09:42:26.974Z,10
2016-10-13T09:43:27.108Z,15
2016-10-13T09:44:27.124Z,15
2016-10-13T09:45:27.161Z,15
2016-10-13T09:46:27.306Z,15
2016-10-13T09:47:27.797Z,20
2016-10-13T09:48:27.289Z,20
2016-10-13T09:49:27.362Z,20
2016-10-13T09:50:27.944Z,20
2016-10-13T09:51:28.122Z,25
2016-10-13T09:52:27.495Z,25
2016-10-13T09:53:28.116Z,25
2016-10-13T09:54:27.616Z,25
2016-10-13T09:55:27.656Z,25
2016-10-13T09:56:28.220Z,25
2016-10-13T09:57:27.886Z,30
2016-10-13T09:58:27.829Z,30
2016-10-13T09:59:28.412Z,25
2016-10-13T10:00:27.910Z,25
2016-10-13T10:01:28.009Z,25
2016-10-13T10:02:28.151Z,25
2016-10-13T10:03:28.079Z,25
2016-10-13T10:04:28.129Z,25
2016-10-13T10:05:28.216Z,25
2016-10-13T10:06:28.247Z,30
2016-10-13T10:07:28.889Z,30
2016-10-13T10:08:28.296Z,30
2016-10-13T10:09:28.414Z,30
2016-10-13T10:10:28.400Z,30
2016-10-13T10:11:28.489Z,35
2016-10-13T10:12:28.674Z,35
2016-10-13T10:13:28.576Z,35
2016-10-13T10:14:28.688Z,40
2016-10-13T10:15:28.725Z,40
2016-10-13T10:16:28.845Z,40
2016-10-13T10:17:28.957Z,40
2016-10-13T10:18:28.854Z,40
2016-10-13T10:19:28.894Z,45
2016-10-13T10:20:28.976Z,45
2016-10-13T10:21:29.049Z,45
2016-10-13T10:22:29.181Z,50
2016-10-13T10:23:29.187Z,55
2016-10-13T10:24:29.152Z,55
2016-10-13T10:25:29.264Z,60
2016-10-13T10:26:29.335Z,60
2016-10-13T10:27:30.003Z,60
2016-10-13T10:28:29.445Z,60
2016-10-13T10:29:29.480Z,60
2016-10-13T10:30:29.513Z,65
2016-10-13T10:31:29.557Z,70
2016-10-13T10:32:29.617Z,70
2016-10-13T10:33:29.724Z,75
2016-10-13T10:34:29.699Z,80
2016-10-13T10:35:29.743Z,85
2016-10-13T10:36:29.890Z,85
2016-10-13T10:37:30.934Z,100
2016-10-13T10:38:30.050Z,115
2016-10-13T10:39:30.570Z,140
2016-10-13T10:40:30.023Z,130
2016-10-13T10:41:30.628Z,120
2016-10-13T10:42:30.172Z,125
2016-10-13T10:43:30.293Z,125
2016-10-13T10:44:30.265Z,120
2016-10-13T10:45:30.850Z,120
2016-10-13T10:46:30.352Z,120
2016-10-13T10:47:30.408Z,120
2016-10-13T10:48:30.544Z,115
2016-10-13T10:49:30.534Z,110
2016-10-13T10:50:30.580Z,105
2016-10-13T10:51:30.627Z,95
2016-10-13T10:52:30.737Z,85
2016-10-13T10:53:30.833Z,70
2016-10-13T10:54:30.769Z,65
2016-10-13T10:55:30.847Z,60
2016-10-13T10:56:30.982Z,55
2016-10-13T10:57:31.487Z,50
2016-10-13T10:58:31.048Z,50
2016-10-13T10:59:31.074Z,50
2016-10-13T11:00:31.651Z,50
2016-10-13T11:01:31.186Z,45
2016-10-13T11:02:31.203Z,45
2016-10-13T11:03:31.386Z,45
2016-10-13T11:04:31.285Z,45
2016-10-13T11:05:31.417Z,45
2016-10-13T11:06:31.425Z,45
2016-10-13T11:07:31.441Z,50
2016-10-13T11:08:31.539Z,50
2016-10-13T11:09:31.688Z,50
2016-10-13T11:10:31.701Z,50
2016-10-13T11:11:31.685Z,50
2016-10-13T11:12:31.752Z,50
2016-10-13T11:13:31.760Z,50
2016-10-13T11:14:31.953Z,50
2016-10-13T11:15:32.449Z,50
2016-10-13T11:16:31.975Z,50
2016-10-13T11:17:31.977Z,45
2016-10-13T11:18:32.069Z,45
2016-10-13T11:19:32.239Z,45
2016-10-13T11:20:32.192Z,40
2016-10-13T11:21:33.298Z,40
2016-10-13T11:22:32.304Z,40
2016-10-13T11:23:32.329Z,35
2016-10-13T11:24:33.007Z,35
2016-10-13T11:25:32.447Z,35
2016-10-13T11:26:32.448Z,35
2016-10-13T11:27:33.061Z,30
2016-10-13T11:28:32.606Z,30
2016-10-13T11:29:33.267Z,30
2016-10-13T11:30:32.688Z,30
2016-10-13T11:31:32.758Z,30
2016-10-13T11:32:32.838Z,30
2016-10-13T11:33:33.359Z,30
2016-10-13T11:34:33.022Z,35
2016-10-13T11:35:32.990Z,35
2016-10-13T11:36:33.100Z,35
2016-10-13T11:37:33.656Z,35
2016-10-13T11:38:33.128Z,35
2016-10-13T11:39:33.172Z,35
2016-10-13T11:40:33.342Z,40
2016-10-13T11:41:33.265Z,40
2016-10-13T11:42:33.347Z,40
2016-10-13T11:43:34.484Z,45
2016-10-13T11:44:33.472Z,45
2016-10-13T11:45:37.432Z,45
2016-10-13T11:46:34.134Z,50
2016-10-13T11:47:33.624Z,50
2016-10-13T11:48:33.616Z,50
2016-10-13T11:49:33.721Z,55
2016-10-13T11:50:33.883Z,55
2016-10-13T11:51:33.783Z,55
2016-10-13T11:52:33.893Z,55
2016-10-13T11:53:33.935Z,55
2016-10-13T11:54:34.015Z,60
2016-10-13T11:55:34.627Z,65
2016-10-13T11:56:34.091Z,70
2016-10-13T11:57:34.339Z,70
2016-10-13T11:58:34.164Z,75
2016-10-13T11:59:34.268Z,75
2016-10-13T12:00:34.344Z,80
2016-10-13T12:01:34.393Z,85
2016-10-13T12:02:35.161Z,90
2016-10-13T12:03:34.489Z,95
2016-10-13T12:04:35.100Z,100
2016-10-13T12:05:35.216Z,105
2016-10-13T12:06:35.157Z,110
2016-10-13T12:07:34.676Z,125
2016-10-13T12:08:34.724Z,135
2016-10-13T12:09:35.344Z,145
2016-10-13T12:10:34.948Z,145
2016-10-13T12:11:34.940Z,150
2016-10-13T12:12:34.921Z,150
2016-10-13T12:13:34.975Z,155
2016-10-13T12:14:35.023Z,150
2016-10-13T12:15:35.756Z,150
2016-10-13T12:16:35.687Z,145
2016-10-13T12:17:35.815Z,145
2016-10-13T12:18:35.259Z,145
2016-10-13T12:19:35.898Z,140
2016-10-13T12:20:35.393Z,140
2016-10-13T12:21:35.530Z,135
2016-10-13T12:22:35.469Z,135
2016-10-13T12:23:35.541Z,135
2016-10-13T12:24:35.588Z,135
2016-10-13T12:25:35.653Z,135
2016-10-13T12:26:36.826Z,135
2016-10-13T12:27:35.795Z,145
2016-10-13T12:28:35.854Z,140
2016-10-13T12:29:35.858Z,145
2016-10-13T12:30:35.924Z,150
2016-10-13T12:31:36.053Z,155
2016-10-13T12:32:36.598Z,155
2016-10-13T12:33:36.149Z,155
2016-10-13T12:34:36.127Z,165
2016-10-13T12:35:36.187Z,160
2016-10-13T12:36:36.335Z,170
2016-10-13T12:37:36.288Z,175
2016-10-13T12:38:36.358Z,175
2016-10-13T12:39:36.978Z,175
2016-10-13T12:40:36.453Z,175
2016-10-13T12:41:36.588Z,175
2016-10-13T12:42:37.062Z,160
2016-10-13T12:43:36.669Z,155
2016-10-13T12:44:36.754Z,165
2016-10-13T12:45:36.762Z,165
2016-10-13T12:46:36.885Z,170
2016-10-13T12:47:36.841Z,190
2016-10-13T12:48:36.924Z,200
2016-10-13T12:49:36.927Z,200
2016-10-13T12:50:37.011Z,200
2016-10-13T12:51:37.163Z,190
2016-10-13T12:52:37.676Z,195
2016-10-13T12:53:37.711Z,180
2016-10-13T12:54:37.275Z,155
2016-10-13T12:55:37.310Z,165
2016-10-13T12:56:37.390Z,165
2016-10-13T12:57:37.345Z,165
2016-10-13T12:58:37.401Z,190
2016-10-13T12:59:38.065Z,180
2016-10-13T13:00:38.062Z,175
2016-10-13T13:01:37.705Z,175
2016-10-13T13:02:38.218Z,175
2016-10-13T13:03:38.246Z,185
2016-10-13T13:04:38.366Z,170
2016-10-13T13:05:37.854Z,180
2016-10-13T13:06:38.046Z,190
2016-10-13T13:07:37.911Z,185
2016-10-13T13:08:38.017Z,175
2016-10-13T13:09:38.094Z,195
2016-10-13T13:10:38.129Z,190
2016-10-13T13:11:38.177Z,190
2016-10-13T13:12:38.313Z,190
2016-10-13T13:13:38.491Z,195
2016-10-13T13:14:38.362Z,190
2016-10-13T13:15:38.393Z,190
2016-10-13T13:16:38.483Z,170
2016-10-13T13:17:38.569Z,195
2016-10-13T13:18:38.544Z,150
2016-10-13T13:19:38.628Z,180
2016-10-13T13:20:38.699Z,145
2016-10-13T13:21:39.260Z,135
2016-10-13T13:22:38.867Z,145
2016-10-13T13:23:38.840Z,180
2016-10-13T13:24:38.916Z,165
2016-10-13T13:25:38.969Z,150
2016-10-13T13:26:38.987Z,155
2016-10-13T13:27:39.148Z,170
2016-10-13T13:28:39.148Z,205
2016-10-13T13:29:39.906Z,210
2016-10-13T13:30:39.806Z,215
2016-10-13T13:31:40.334Z,195
2016-10-13T13:32:39.437Z,180
2016-10-13T13:33:39.442Z,190
2016-10-13T13:34:39.498Z,185
2016-10-13T13:35:39.498Z,160
2016-10-13T13:36:39.559Z,155
2016-10-13T13:37:39.715Z,165
2016-10-13T13:38:39.755Z,155
2016-10-13T13:39:40.766Z,160
2016-10-13T13:40:39.792Z,165
2016-10-13T13:41:39.849Z,165
2016-10-13T13:42:40.558Z,180
2016-10-13T13:43:40.504Z,175
2016-10-13T13:44:40.539Z,185
2016-10-13T13:45:40.089Z,185
2016-10-13T13:46:40.143Z,180
2016-10-13T13:47:40.291Z,180
2016-10-13T13:48:40.709Z,175
2016-10-13T13:49:40.820Z,170
2016-10-13T13:50:40.348Z,165
2016-10-13T13:51:40.413Z,160
2016-10-13T13:52:40.629Z,160
2016-10-13T13:53:40.529Z,160
2016-10-13T13:54:41.147Z,155
2016-10-13T13:55:41.166Z,160
2016-10-13T13:56:40.715Z,155
2016-10-13T13:57:40.874Z,140
2016-10-13T13:58:40.818Z,140
2016-10-13T13:59:40.867Z,140
2016-10-13T14:00:41.447Z,135
2016-10-13T14:01:41.010Z,130
2016-10-13T14:02:41.051Z,125
2016-10-13T14:03:41.190Z,125
2016-10-13T14:04:41.674Z,135
2016-10-13T14:05:41.240Z,135
2016-10-13T14:06:41.755Z,140
2016-10-13T14:07:41.370Z,135
2016-10-13T14:08:41.978Z,140
2016-10-13T14:09:41.975Z,135
2016-10-13T14:10:42.081Z,145
2016-10-13T14:11:42.093Z,140
2016-10-13T14:12:42.153Z,140
2016-10-13T14:13:41.856Z,140
2016-10-13T14:14:42.830Z,140
2016-10-13T14:15:42.389Z,150
2016-10-13T14:16:42.408Z,145
2016-10-13T14:17:43.435Z,145
2016-10-13T14:18:42.761Z,145
2016-10-13T14:19:43.089Z,155
2016-10-13T14:20:43.168Z,155
2016-10-13T14:21:42.689Z,155
2016-10-13T14:22:43.808Z,160
2016-10-13T14:23:43.346Z,155
2016-10-13T14:24:42.258Z,165
2016-10-13T14:25:42.346Z,160
2016-10-13T14:26:42.381Z,155
2016-10-13T14:27:42.461Z,160
2016-10-13T14:28:42.629Z,150
2016-10-13T14:29:42.561Z,155
2016-10-13T14:30:42.669Z,150
2016-10-13T14:31:42.709Z,155